• Join FlightAware (Why Join?)
  • Login
  • US Flag 
03:25PM EDT


 

Airport Tracker/Info


-or-


 

Live Flight TrackerFlight Track Log ✈ SKW6432 ✈ 01-May-2013 ✈ KSNA - KSFO

Flight Track Log - Related Links

Times and Time Zones

All times are in EDT time to prevent confusion due to time zone crossing. See the SKW6432 flight status page for this flight to view local times or setup timezone preferences in your user account.

Time Position Orientation Groundspeed Altitude Reporting Facility
EDT Latitude Longitude Course Direction KTS MPH feet Rate Location/Type
10:51PM 33.6333 -117.8833 180° South 166 191 2,600  Level Southern California TRACON
10:52PM 33.6003 -117.8986 201° Southwest 181 208 3,000 1,740 Climbing Los Angeles Center
10:53PM 33.5347 -117.9353 205° Southwest 248 285 5,700 3,240 Climbing Los Angeles Center
10:54PM 33.4070 -118.3361 239° Southwest  Level FlightAware Approximate
10:54PM 33.4575 -117.9992 215° Southwest 274 315 9,700  Level Los Angeles Center
10:55PM 33.4036 -118.4360 328° Northwest  Level FlightAware Approximate
10:55PM 33.3814 -118.0586 213° Southwest 310 357 12,000  Level Los Angeles Center
10:56PM 33.4944 -118.5222 337° Northwest  Level FlightAware Approximate
10:56PM 33.3381 -118.1564 242° Southwest 345 397 14,700  Level Los Angeles Center
10:57PM 33.5744 -118.5910 320° Northwest  Level FlightAware Approximate
10:57PM 33.3803 -118.2600 296° West 351 404 17,400  Level Los Angeles Center
10:58PM 33.4478 -118.3503 312° West 361 415 19,800 2,280 Climbing Los Angeles Center
10:59PM 33.5194 -118.4442 312° West 374 430 22,100 2,160 Climbing Los Angeles Center
11:00PM 33.5919 -118.5419 312° West 388 447 24,300 1,980 Climbing Los Angeles Center
11:01PM 33.6678 -118.6414 313° West 396 456 26,200 1,680 Climbing Los Angeles Center
11:03PM 33.7450 -118.7442 312° West 408 470 27,800 1,380 Climbing Los Angeles Center
11:04PM 33.8236 -118.8478 312° West 417 480 29,400 1,620 Climbing Los Angeles Center
11:05PM 33.9369 -118.9983 312° West 431 496 31,500 1,740 Climbing Los Angeles Center
11:06PM 34.0167 -119.1064 312° West 431 496 33,000 1,440 Climbing Los Angeles Center
11:07PM 34.0969 -119.2153 312° West 434 499 34,500 1,440 Climbing Los Angeles Center
11:08PM 34.1825 -119.3167 316° Northwest 433 498 36,000 1,320 Climbing Los Angeles Center
11:09PM 34.2697 -119.4133 318° Northwest 427 491 37,500 840 Climbing Los Angeles Center
11:10PM 34.3553 -119.5117 317° Northwest 425 489 38,000 240 Climbing Los Angeles Center
11:11PM 34.4439 -119.6119 317° Northwest 434 499 38,000  Level Los Angeles Center
11:12PM 34.5719 -119.7572 317° Northwest 450 518 38,000  Level Los Angeles Center
11:13PM 34.6650 -119.8600 318° Northwest 451 519 38,000  Level Los Angeles Center
11:14PM 34.7547 -119.9617 317° Northwest 442 509 38,000  Level Los Angeles Center
11:15PM 34.8422 -120.0625 317° Northwest 434 499 38,000  Level Los Angeles Center
11:16PM 34.9378 -120.1728 317° Northwest 430 495 38,000  Level Los Angeles Center
11:17PM 35.0228 -120.2711 317° Northwest 427 491 38,000  Level Los Angeles Center
11:18PM 35.1072 -120.3689 317° Northwest 425 489 38,000  Level Los Angeles Center
11:19PM 35.1914 -120.4661 317° Northwest 419 482 38,000  Level Los Angeles Center
11:20PM 35.2744 -120.5658 316° Northwest 422 486 38,000  Level Los Angeles Center
11:21PM 35.3606 -120.6611 318° Northwest 420 483 38,000  Level Los Angeles Center
11:22PM 35.4714 -120.7644 323° Northwest 419 482 38,000  Level Oakland Center
11:23PM 35.5644 -120.8503 323° Northwest 418 481 38,000  Level Oakland Center
11:24PM 35.6583 -120.9375 323° Northwest 422 486 38,000  Level Oakland Center
11:25PM 35.7503 -121.0236 323° Northwest 419 482 38,000  Level Oakland Center
11:27PM 35.8433 -121.1106 323° Northwest 421 484 38,000  Level Oakland Center
11:28PM 35.9367 -121.1958 324° Northwest 420 483 38,000  Level Oakland Center
11:29PM 36.0303 -121.2825 323° Northwest 425 489 38,000  Level Oakland Center
11:30PM 36.1236 -121.3678 324° Northwest 424 488 38,000 -1,140 Level Oakland Center
11:31PM 36.2197 -121.4575 323° Northwest 446 513 35,700 -2,640 Descending Oakland Center
11:32PM 36.3114 -121.5467 322° Northwest 424 488 32,700 -3,000 Descending Oakland Center
11:33PM 36.4011 -121.6336 322° Northwest 412 474 29,600 -3,000 Descending Oakland Center
11:34PM 36.4889 -121.7175 322° Northwest 401 461 26,600 -3,000 Descending Oakland Center
11:35PM 36.5792 -121.8064 322° Northwest 417 480 23,600 -3,300 Descending Oakland Center
11:35PM 36.6167 -121.8500 317° Northwest 427 491 22,400 -3,120 Descending Northern Cal TRACON
11:36PM 36.7167 -121.9333 326° Northwest 428 493 19,700 -2,820 Descending Northern Cal TRACON
11:37PM 36.8167 -121.9833 338° Northwest 396 456 16,800 -3,060 Descending Northern Cal TRACON
11:38PM 36.9011 -122.0058 348° North 383 441 14,300 -2,700 Descending Oakland Center
11:39PM 37.0039 -122.0331 348° North 378 435 12,000 -2,100 Descending Oakland Center
11:40PM 37.1031 -122.0583 349° North 368 423 10,100 -1,020 Descending Oakland Center
11:41PM 37.1853 -122.0792 349° North 312 359 10,000 -360 Descending Oakland Center
11:42PM 37.2675 -122.1006 348° North 302 348 9,400 -960 Descending Oakland Center
11:43PM 37.3478 -122.1217 348° North 297 342 8,100 -1,560 Descending Oakland Center
11:44PM 37.4242 -122.1425 348° North 286 329 6,300 -1,620 Descending Oakland Center
11:45PM 37.4936 -122.1600 349° North 264 304 4,900 -1,500 Descending Oakland Center
11:46PM 37.5386 -122.2006 324° Northwest 211 243 3,300 -1,620 Descending Oakland Center